< < Back
Terminal Aerodrome Forecast


Current Version              Previous Versions:   1  2  3  4  5  6  7  8  9  

Terminal Aerodrome Forecast

188
FTUS42 KJAX 101657 AAB
TAFGNV
TAF AMD
KGNV 101657Z 1017/1112 27016G25KT P6SM SKC
     FM102300 26003KT P6SM SKC=

Latest METAR

181
SAUS70 KWBC 102200 RRG
MTRGNV
METAR KGNV 102153Z 30013KT 10SM CLR 11/M12 A3018 RMK AO2 SLP220
T01111117


USA.gov is the U.S. government's official web portal to all federal, state and local government web resources and services.